createdAt,value
2023-02-17T00:00:58.715Z,39.10
2023-02-17T00:03:25.254Z,39.85
2023-02-17T00:05:51.926Z,39.63
2023-02-17T00:08:18.336Z,39.30
2023-02-17T00:10:44.734Z,38.00
2023-02-17T00:13:11.146Z,37.67
2023-02-17T00:15:40.618Z,36.75
2023-02-17T00:18:06.991Z,36.17
2023-02-17T00:20:33.412Z,36.25
2023-02-17T00:22:59.777Z,37.00
2023-02-17T00:25:26.392Z,34.92
2023-02-17T00:27:52.808Z,37.72
2023-02-17T00:30:19.377Z,35.47
2023-02-17T00:32:45.939Z,36.22
2023-02-17T00:35:12.432Z,34.97
2023-02-17T00:37:40.262Z,31.80
2023-02-17T00:40:07.239Z,35.20
2023-02-17T00:42:33.597Z,32.30
2023-02-17T00:44:59.989Z,33.47
2023-02-17T00:47:26.352Z,33.08
2023-02-17T00:49:52.732Z,32.70
2023-02-17T00:52:19.102Z,32.25
2023-02-17T00:54:45.527Z,33.10
2023-02-17T00:57:11.916Z,32.38
2023-02-17T00:59:38.286Z,32.88
2023-02-17T01:02:04.664Z,31.20
2023-02-17T01:04:31.250Z,31.70
2023-02-17T01:06:57.648Z,32.10
2023-02-17T01:09:24.360Z,32.15
2023-02-17T01:11:50.745Z,31.23
2023-02-17T01:14:17.734Z,29.98
2023-02-17T01:16:47.646Z,28.02
2023-02-17T01:19:17.594Z,28.23
2023-02-17T01:21:44.532Z,29.13
2023-02-17T01:24:12.069Z,27.58
2023-02-17T01:26:39.283Z,26.50
2023-02-17T01:29:06.754Z,27.60
2023-02-17T01:31:33.666Z,27.15
2023-02-17T01:34:01.805Z,28.38
2023-02-17T01:36:28.980Z,28.02
2023-02-17T01:38:55.433Z,25.95
2023-02-17T01:41:26.762Z,26.38
2023-02-17T01:44:21.786Z,27.25
2023-02-17T01:46:49.702Z,25.00
2023-02-17T01:49:33.297Z,26.65
2023-02-17T01:52:06.697Z,25.70
2023-02-17T01:54:42.592Z,25.63
2023-02-17T01:57:09.847Z,27.65
2023-02-17T01:59:36.631Z,27.48
2023-02-17T02:02:04.351Z,28.33
2023-02-17T02:04:33.308Z,26.75
2023-02-17T02:06:59.782Z,26.95
2023-02-17T02:09:31.301Z,28.35
2023-02-17T02:11:59.828Z,28.95
2023-02-17T02:14:26.314Z,26.80
2023-02-17T02:17:14.630Z,28.45
2023-02-17T02:20:19.565Z,26.75
2023-02-17T02:23:16.941Z,27.42
2023-02-17T02:26:08.198Z,27.17
2023-02-17T02:28:46.843Z,28.35
2023-02-17T02:31:16.285Z,28.48
2023-02-17T02:33:55.376Z,29.02
2023-02-17T02:36:26.854Z,27.98
2023-02-17T02:38:58.832Z,27.38
2023-02-17T02:41:34.946Z,27.80
2023-02-17T02:44:05.788Z,26.88
2023-02-17T02:46:32.238Z,25.98
2023-02-17T02:48:59.139Z,27.48
2023-02-17T02:52:03.061Z,29.80
2023-02-17T02:54:49.601Z,27.13
2023-02-17T02:57:34.754Z,28.23
2023-02-17T03:00:10.179Z,27.67
2023-02-17T03:02:57.168Z,28.38
2023-02-17T03:05:57.015Z,28.08
2023-02-17T03:08:33.438Z,27.65
2023-02-17T03:11:00.349Z,27.67
2023-02-17T03:13:26.824Z,28.27
2023-02-17T03:15:53.305Z,28.38
2023-02-17T03:18:19.789Z,28.55
2023-02-17T03:20:52.235Z,28.73
2023-02-17T03:23:18.802Z,27.55
2023-02-17T03:25:45.211Z,26.40
2023-02-17T03:28:11.611Z,25.95
2023-02-17T03:30:38.179Z,25.45
2023-02-17T03:33:04.574Z,25.17
2023-02-17T03:35:31.089Z,23.45
2023-02-17T03:37:57.448Z,22.88
2023-02-17T03:40:24.037Z,23.75
2023-02-17T03:42:50.404Z,21.67
2023-02-17T03:45:16.780Z,21.85
2023-02-17T03:47:43.184Z,21.30
2023-02-17T03:50:09.782Z,21.50
2023-02-17T03:52:36.241Z,21.13
2023-02-17T03:55:02.612Z,20.13
2023-02-17T03:57:29.029Z,19.83
2023-02-17T03:59:55.391Z,19.02
2023-02-17T04:02:21.794Z,20.05
2023-02-17T04:04:48.303Z,19.42
2023-02-17T04:07:14.752Z,18.80
2023-02-17T04:09:41.464Z,18.00
2023-02-17T04:12:07.881Z,18.42
2023-02-17T04:14:34.244Z,17.88
2023-02-17T04:17:00.732Z,18.35
2023-02-17T04:19:27.100Z,17.70
2023-02-17T04:21:53.534Z,17.17
2023-02-17T04:24:19.937Z,17.88
2023-02-17T04:26:46.387Z,17.48
2023-02-17T04:29:12.754Z,17.80
2023-02-17T04:31:39.253Z,17.33
2023-02-17T04:34:05.675Z,17.45
2023-02-17T04:36:33.804Z,16.95
2023-02-17T04:39:00.274Z,16.80
2023-02-17T04:41:26.972Z,16.42
2023-02-17T04:43:53.368Z,16.58
2023-02-17T04:46:19.782Z,15.30
2023-02-17T04:48:46.225Z,15.52
2023-02-17T04:51:12.632Z,15.77
2023-02-17T04:53:39.095Z,15.80
2023-02-17T04:56:06.323Z,14.70
2023-02-17T04:58:33.023Z,13.80
2023-02-17T05:01:00.740Z,14.43
2023-02-17T05:03:27.158Z,14.32
2023-02-17T05:05:53.529Z,14.88
2023-02-17T05:08:19.904Z,15.60
2023-02-17T05:10:46.273Z,15.00
2023-02-17T05:13:12.699Z,14.45
2023-02-17T05:15:39.162Z,14.38
2023-02-17T05:18:05.883Z,14.38
2023-02-17T05:20:32.270Z,13.90
2023-02-17T05:22:58.665Z,14.20
2023-02-17T05:25:25.111Z,13.27
2023-02-17T05:27:51.522Z,13.70
2023-02-17T05:30:18.042Z,13.85
2023-02-17T05:32:44.509Z,13.27
2023-02-17T05:35:10.940Z,13.32
2023-02-17T05:37:37.518Z,12.82
2023-02-17T05:40:04.304Z,13.38
2023-02-17T05:42:30.781Z,13.57
2023-02-17T05:44:57.230Z,14.15
2023-02-17T05:47:23.772Z,13.40
2023-02-17T05:49:50.177Z,13.32
2023-02-17T05:52:18.143Z,13.60
2023-02-17T05:54:44.550Z,14.60
2023-02-17T05:57:10.954Z,14.18
2023-02-17T05:59:37.323Z,16.40
2023-02-17T06:02:03.833Z,15.52
2023-02-17T06:04:30.238Z,14.85
2023-02-17T06:06:56.697Z,14.05
2023-02-17T06:09:23.096Z,12.95
2023-02-17T06:11:55.524Z,12.48
2023-02-17T06:14:22.145Z,13.13
2023-02-17T06:16:48.590Z,13.77
2023-02-17T06:19:14.995Z,15.48
2023-02-17T06:21:41.394Z,16.42
2023-02-17T06:24:07.854Z,16.30
2023-02-17T06:26:34.238Z,15.88
2023-02-17T06:29:00.668Z,15.27
2023-02-17T06:31:27.128Z,15.27
2023-02-17T06:33:53.621Z,15.00
2023-02-17T06:36:20.106Z,15.40
2023-02-17T06:38:46.538Z,14.57
2023-02-17T06:41:12.915Z,13.25
2023-02-17T06:43:39.326Z,13.88
2023-02-17T06:46:06.148Z,13.85
2023-02-17T06:48:35.809Z,13.35
2023-02-17T06:51:02.218Z,13.07
2023-02-17T06:53:28.624Z,14.23
2023-02-17T06:55:55.045Z,15.27
2023-02-17T06:58:21.658Z,15.00
2023-02-17T07:00:48.143Z,16.30
2023-02-17T07:03:14.627Z,14.50
2023-02-17T07:05:41.058Z,15.70
2023-02-17T07:08:07.520Z,15.25
2023-02-17T07:10:33.995Z,15.77
2023-02-17T07:13:00.433Z,16.52
2023-02-17T07:15:26.885Z,17.60
2023-02-17T07:17:53.304Z,17.73
2023-02-17T07:20:19.774Z,19.92
2023-02-17T07:22:46.153Z,18.30
2023-02-17T07:25:12.549Z,19.23
2023-02-17T07:27:38.930Z,20.88
2023-02-17T07:30:06.377Z,21.35
2023-02-17T07:32:33.147Z,20.00
2023-02-17T07:34:59.547Z,20.90
2023-02-17T07:37:25.939Z,21.30
2023-02-17T07:39:52.359Z,20.48
2023-02-17T07:42:18.748Z,22.67
2023-02-17T07:44:45.211Z,22.02
2023-02-17T07:47:11.657Z,20.85
2023-02-17T07:49:38.354Z,20.65
2023-02-17T07:52:05.515Z,20.58
2023-02-17T07:54:32.033Z,21.63
2023-02-17T07:56:58.542Z,22.25
2023-02-17T07:59:24.940Z,19.95
2023-02-17T08:01:51.334Z,19.33
2023-02-17T08:04:17.842Z,20.85
2023-02-17T08:06:44.356Z,19.17
2023-02-17T08:09:30.359Z,19.95
2023-02-17T08:12:15.277Z,20.75
2023-02-17T08:14:41.735Z,19.90
2023-02-17T08:17:08.217Z,19.23
2023-02-17T08:19:47.490Z,19.80
2023-02-17T08:22:16.384Z,18.05
2023-02-17T08:24:42.901Z,17.08
2023-02-17T08:27:09.274Z,19.52
2023-02-17T08:29:35.634Z,16.23
2023-02-17T08:32:02.122Z,16.52
2023-02-17T08:34:33.434Z,16.98
2023-02-17T08:37:01.380Z,16.02
2023-02-17T08:39:28.414Z,17.60
2023-02-17T08:41:55.245Z,15.52
2023-02-17T08:44:22.450Z,15.07
2023-02-17T08:46:50.138Z,15.52
2023-02-17T08:49:19.059Z,14.73
2023-02-17T08:51:45.632Z,13.68
2023-02-17T08:54:12.726Z,14.52
2023-02-17T08:56:39.995Z,13.55
2023-02-17T08:59:08.076Z,12.20
2023-02-17T09:01:35.330Z,13.40
2023-02-17T09:04:03.642Z,12.38
2023-02-17T09:06:38.956Z,12.55
2023-02-17T09:09:07.650Z,11.95
2023-02-17T09:11:34.390Z,11.63
2023-02-17T09:14:00.857Z,12.73
2023-02-17T09:16:27.360Z,11.48
2023-02-17T09:18:54.512Z,11.98
2023-02-17T09:21:21.299Z,12.30
2023-02-17T09:23:49.523Z,11.77
2023-02-17T09:26:17.225Z,11.18
2023-02-17T09:28:44.240Z,10.57
2023-02-17T09:31:20.148Z,11.35
2023-02-17T09:33:47.757Z,10.98
2023-02-17T09:36:15.849Z,10.68
2023-02-17T09:38:42.708Z,9.57
2023-02-17T09:41:15.045Z,10.48
2023-02-17T09:43:41.538Z,10.27
2023-02-17T09:46:17.366Z,9.90
2023-02-17T09:48:44.528Z,10.68
2023-02-17T09:51:21.872Z,11.27
2023-02-17T09:54:07.509Z,9.77
2023-02-17T09:56:37.150Z,8.80
2023-02-17T09:59:26.749Z,10.43
2023-02-17T10:01:53.992Z,11.07
2023-02-17T10:04:34.337Z,10.65
2023-02-17T10:07:05.472Z,12.10
2023-02-17T10:09:40.690Z,10.93
2023-02-17T10:12:10.120Z,10.63
2023-02-17T10:14:52.589Z,10.90
2023-02-17T10:17:32.923Z,11.05
2023-02-17T10:20:16.114Z,12.80
2023-02-17T10:22:44.235Z,12.23
2023-02-17T10:25:47.153Z,12.38
2023-02-17T10:28:22.336Z,13.00
2023-02-17T10:31:11.903Z,11.80
2023-02-17T10:34:03.527Z,11.38
2023-02-17T10:36:52.423Z,13.00
2023-02-17T10:39:40.311Z,12.57
2023-02-17T10:42:11.451Z,12.95
2023-02-17T10:44:37.934Z,14.00
2023-02-17T10:47:04.615Z,13.35
2023-02-17T10:49:43.210Z,16.63
2023-02-17T10:52:13.768Z,12.15
2023-02-17T10:54:46.249Z,12.50
2023-02-17T10:57:13.432Z,12.05
2023-02-17T10:59:45.087Z,13.07
2023-02-17T11:02:21.974Z,12.65
2023-02-17T11:04:50.945Z,14.02
2023-02-17T11:07:19.841Z,14.40
2023-02-17T11:09:56.166Z,14.15
2023-02-17T11:12:29.885Z,15.05
2023-02-17T11:14:56.342Z,14.70
2023-02-17T11:17:35.842Z,16.55
2023-02-17T11:20:28.128Z,15.60
